Time;durP1;ratioP1;P1;durP2;ratioP2;P2;SDS_P1;SDS_P2;PMS_P1;PMS_P2;Temp;Humidity;BMP_temperature;BMP_pressure;BME280_temperature;BME280_humidity;BME280_pressure;Samples;Min_cycle;Max_cycle;Signal;HPM_P1;HPM_P2
2021/03/03 00:00:41;;;;;;;69.83;33.73;;;4.40;99.90;;;;;;4822805;29;20205;-60
2021/03/03 00:03:09;;;;;;;72.67;34.77;;;4.40;99.90;;;;;;4824182;29;20201;-61
2021/03/03 00:05:37;;;;;;;71.83;34.47;;;4.40;99.90;;;;;;4822672;29;20269;-61
2021/03/03 00:08:05;;;;;;;69.87;34.17;;;4.40;99.90;;;;;;4820940;29;20790;-61
2021/03/03 00:10:33;;;;;;;71.80;35.10;;;4.40;99.90;;;;;;4824452;29;20217;-61
2021/03/03 00:13:00;;;;;;;76.63;37.43;;;4.30;99.90;;;;;;4821208;29;20259;-60
2021/03/03 00:15:28;;;;;;;76.77;36.67;;;4.30;99.90;;;;;;4821038;29;20233;-61
2021/03/03 00:17:55;;;;;;;83.77;36.40;;;4.30;99.90;;;;;;4821567;29;20228;-60
2021/03/03 00:20:23;;;;;;;76.27;36.57;;;4.30;99.90;;;;;;4822216;29;20197;-60
2021/03/03 00:22:52;;;;;;;76.77;35.47;;;4.30;99.90;;;;;;4821204;29;20228;-60
2021/03/03 00:25:19;;;;;;;73.63;35.10;;;4.30;99.90;;;;;;4822962;29;20244;-60
2021/03/03 00:27:46;;;;;;;81.03;37.70;;;4.20;99.90;;;;;;4817026;29;20209;-60
2021/03/03 00:30:16;;;;;;;79.40;36.57;;;4.20;99.90;;;;;;4822555;29;20201;-61
2021/03/03 00:32:43;;;;;;;84.10;41.27;;;4.20;99.90;;;;;;4814683;29;20349;-61
2021/03/03 00:35:12;;;;;;;84.97;40.17;;;4.20;99.90;;;;;;4822525;29;20197;-60
2021/03/03 00:37:40;;;;;;;92.13;40.63;;;4.20;99.90;;;;;;4819641;29;20661;-60
2021/03/03 00:40:09;;;;;;;81.60;37.80;;;4.10;99.90;;;;;;4823726;29;20320;-60
2021/03/03 00:42:37;;;;;;;81.03;38.20;;;4.10;99.90;;;;;;4821479;29;20299;-60
2021/03/03 00:45:05;;;;;;;90.70;37.30;;;4.10;99.90;;;;;;4822723;29;20637;-60
2021/03/03 00:47:33;;;;;;;74.13;36.10;;;4.00;99.90;;;;;;4821408;29;20325;-60
2021/03/03 00:50:00;;;;;;;73.67;36.03;;;4.00;99.90;;;;;;4820666;29;20193;-60
2021/03/03 00:52:28;;;;;;;79.67;39.50;;;3.90;99.90;;;;;;4821350;29;20274;-60
2021/03/03 00:54:55;;;;;;;92.13;40.20;;;3.90;99.90;;;;;;4821250;29;20232;-60
2021/03/03 00:57:23;;;;;;;100.33;41.40;;;3.90;99.90;;;;;;4809321;29;20228;-60
2021/03/03 00:59:51;;;;;;;92.23;41.80;;;3.90;99.90;;;;;;4815142;29;20220;-60
2021/03/03 01:02:18;;;;;;;97.50;43.83;;;3.90;99.90;;;;;;4820863;29;20597;-61
2021/03/03 01:04:45;;;;;;;94.20;42.73;;;3.90;99.90;;;;;;4823208;29;20292;-61
2021/03/03 01:07:13;;;;;;;97.63;46.27;;;3.90;99.90;;;;;;4820396;29;21508;-60
2021/03/03 01:09:40;;;;;;;102.67;44.70;;;4.00;99.90;;;;;;4822702;29;20583;-60
2021/03/03 01:12:08;;;;;;;97.30;43.80;;;4.00;99.90;;;;;;4822342;29;20802;-61
2021/03/03 01:14:36;;;;;;;94.13;45.53;;;4.00;99.90;;;;;;4820876;29;20311;-60
2021/03/03 01:17:03;;;;;;;99.10;45.27;;;4.00;99.90;;;;;;4819612;29;20296;-61
2021/03/03 01:19:31;;;;;;;98.17;44.00;;;4.10;99.90;;;;;;4814485;29;20843;-60
2021/03/03 01:21:58;;;;;;;98.33;43.77;;;4.10;99.90;;;;;;4820740;29;20233;-61
2021/03/03 01:24:25;;;;;;;98.03;44.70;;;4.20;99.90;;;;;;4819357;29;20208;-60
2021/03/03 01:26:53;;;;;;;96.67;44.10;;;4.20;99.90;;;;;;4820893;29;20249;-60
2021/03/03 01:29:20;;;;;;;92.50;45.83;;;4.30;99.90;;;;;;4820067;29;20250;-60
2021/03/03 01:31:48;;;;;;;106.40;44.73;;;4.40;99.90;;;;;;4821238;29;20212;-60
2021/03/03 01:34:16;;;;;;;98.60;46.33;;;4.40;99.90;;;;;;4822023;29;20213;-60
2021/03/03 01:36:44;;;;;;;100.50;45.23;;;4.50;99.90;;;;;;4820456;29;20200;-60
2021/03/03 01:39:11;;;;;;;109.50;47.27;;;4.60;99.90;;;;;;4820772;29;20236;-60
2021/03/03 01:41:38;;;;;;;103.70;47.30;;;4.60;99.90;;;;;;4819598;29;20653;-60
2021/03/03 01:44:06;;;;;;;95.83;45.37;;;4.50;99.90;;;;;;4813706;29;20859;-60
2021/03/03 01:46:33;;;;;;;92.60;44.27;;;4.50;99.90;;;;;;4822373;29;20232;-60
2021/03/03 01:49:01;;;;;;;95.77;42.60;;;4.50;99.90;;;;;;4823476;29;20209;-60
2021/03/03 01:51:29;;;;;;;87.73;42.60;;;4.50;99.90;;;;;;4818947;29;20264;-60
2021/03/03 01:53:57;;;;;;;103.30;44.70;;;4.50;99.90;;;;;;4821336;29;20592;-61
2021/03/03 01:56:24;;;;;;;96.20;45.30;;;4.50;99.90;;;;;;4819617;29;20289;-60
2021/03/03 01:58:51;;;;;;;100.83;45.03;;;4.50;99.90;;;;;;4820832;29;20299;-60
2021/03/03 02:01:20;;;;;;;87.60;44.30;;;4.50;99.90;;;;;;4816138;29;20673;-60
2021/03/03 02:03:47;;;;;;;102.63;46.63;;;4.40;99.90;;;;;;4821817;29;20201;-60
2021/03/03 02:06:22;;;;;;;99.07;44.83;;;4.40;99.90;;;;;;4820627;29;20201;-60
2021/03/03 02:08:54;;;;;;;93.60;44.23;;;4.40;99.90;;;;;;4817826;29;20300;-60
2021/03/03 02:11:30;;;;;;;90.30;42.40;;;4.30;99.90;;;;;;4811222;29;20293;-60
2021/03/03 02:14:06;;;;;;;94.33;43.03;;;4.30;99.90;;;;;;4818323;29;20216;-60
2021/03/03 02:16:35;;;;;;;109.43;45.27;;;4.30;99.90;;;;;;4817145;29;20749;-60
2021/03/03 02:19:05;;;;;;;89.30;42.73;;;4.30;99.90;;;;;;4814607;29;20603;-61
2021/03/03 02:21:38;;;;;;;89.93;44.63;;;4.20;99.90;;;;;;4820669;29;20733;-61
2021/03/03 02:24:12;;;;;;;101.17;45.83;;;4.20;99.90;;;;;;4817366;29;20376;-60
2021/03/03 02:26:42;;;;;;;89.40;44.83;;;4.20;99.90;;;;;;4820752;29;20283;-60
2021/03/03 02:29:12;;;;;;;88.13;42.90;;;4.20;99.90;;;;;;4818432;29;20572;-60
2021/03/03 02:31:42;;;;;;;99.03;44.07;;;4.20;99.90;;;;;;4816127;29;20748;-61
2021/03/03 02:34:12;;;;;;;102.13;46.70;;;4.20;99.90;;;;;;4821573;29;20225;-60
2021/03/03 02:36:42;;;;;;;105.77;46.90;;;4.30;99.90;;;;;;4822228;29;20213;-60
2021/03/03 02:39:11;;;;;;;91.97;44.30;;;4.30;99.90;;;;;;4820552;29;20201;-61
2021/03/03 02:41:40;;;;;;;99.20;44.37;;;4.30;99.90;;;;;;4816673;29;20299;-60
2021/03/03 02:44:09;;;;;;;92.07;43.23;;;4.30;99.90;;;;;;4819469;29;20296;-60
2021/03/03 02:46:37;;;;;;;97.67;43.70;;;4.20;99.90;;;;;;4820955;29;20229;-60
2021/03/03 02:49:09;;;;;;;102.53;46.77;;;4.20;99.90;;;;;;4821110;29;20209;-60
2021/03/03 02:51:37;;;;;;;115.67;48.60;;;4.20;99.90;;;;;;4818174;29;20264;-60
2021/03/03 02:54:09;;;;;;;97.30;45.93;;;4.20;99.90;;;;;;4821477;29;20232;-60
2021/03/03 02:56:36;;;;;;;99.80;45.57;;;4.30;99.90;;;;;;4822245;29;20197;-60
2021/03/03 02:59:20;;;;;;;109.40;48.47;;;4.30;99.90;;;;;;4820024;29;20223;-60
2021/03/03 03:02:02;;;;;;;107.17;47.47;;;4.30;99.90;;;;;;4818213;29;20197;-60
2021/03/03 03:04:34;;;;;;;113.10;47.97;;;4.30;99.90;;;;;;4819441;29;20197;-61
2021/03/03 03:07:06;;;;;;;116.27;49.03;;;4.40;99.90;;;;;;4817342;29;20193;-60
2021/03/03 03:09:35;;;;;;;111.43;48.07;;;4.40;99.90;;;;;;4820134;29;20208;-60
2021/03/03 03:12:03;;;;;;;111.50;47.87;;;4.40;99.90;;;;;;4819694;29;20189;-60
2021/03/03 03:14:34;;;;;;;110.60;49.20;;;4.40;99.90;;;;;;4822241;29;20735;-61
2021/03/03 03:17:01;;;;;;;114.73;48.37;;;4.40;99.90;;;;;;4816225;29;20199;-60
2021/03/03 03:19:35;;;;;;;117.57;50.10;;;4.40;99.90;;;;;;4820314;29;20236;-60
2021/03/03 03:22:04;;;;;;;118.83;50.10;;;4.50;99.90;;;;;;4816883;29;20717;-60
2021/03/03 03:24:33;;;;;;;107.90;47.17;;;4.50;99.90;;;;;;4819630;29;20297;-60
2021/03/03 03:27:01;;;;;;;101.00;45.20;;;4.50;99.90;;;;;;4817864;29;20219;-61
2021/03/03 03:29:28;;;;;;;103.10;46.43;;;4.50;99.90;;;;;;4815680;29;20283;-61
2021/03/03 03:31:57;;;;;;;99.00;43.30;;;4.40;99.90;;;;;;4818733;29;20262;-60
2021/03/03 03:34:24;;;;;;;90.17;42.27;;;4.40;99.90;;;;;;4813854;29;20269;-60
2021/03/03 03:36:53;;;;;;;95.57;42.50;;;4.30;99.90;;;;;;4820442;29;20229;-60
2021/03/03 03:39:20;;;;;;;88.37;42.80;;;4.30;99.90;;;;;;4819777;29;20668;-60
2021/03/03 03:41:48;;;;;;;97.50;44.37;;;4.20;99.90;;;;;;4810275;29;20232;-61
2021/03/03 03:44:18;;;;;;;98.63;44.37;;;4.20;99.90;;;;;;4820332;29;20200;-61
2021/03/03 03:46:46;;;;;;;95.63;43.83;;;4.20;99.90;;;;;;4813079;29;20269;-61
2021/03/03 03:49:18;;;;;;;84.97;41.77;;;4.20;99.90;;;;;;4822567;29;20201;-60
2021/03/03 03:51:45;;;;;;;82.90;41.73;;;4.30;99.90;;;;;;4820432;29;20269;-61
2021/03/03 03:54:13;;;;;;;95.47;43.37;;;4.20;99.90;;;;;;4817347;29;20273;-60
2021/03/03 03:56:42;;;;;;;101.87;43.90;;;4.30;99.90;;;;;;4818284;29;20288;-60
2021/03/03 03:59:10;;;;;;;103.77;45.37;;;4.40;99.90;;;;;;4818991;29;20232;-61
2021/03/03 04:01:38;;;;;;;98.10;46.80;;;4.50;99.90;;;;;;4818111;29;20693;-60
2021/03/03 04:04:05;;;;;;;98.80;45.47;;;4.50;99.90;;;;;;4819837;29;20265;-61
2021/03/03 04:06:33;;;;;;;85.53;42.53;;;4.60;99.90;;;;;;4819399;29;20290;-61
2021/03/03 04:09:01;;;;;;;78.43;38.77;;;4.60;99.90;;;;;;4820273;29;20233;-61
2021/03/03 04:11:28;;;;;;;84.50;40.30;;;4.70;99.90;;;;;;4819495;29;20197;-60
2021/03/03 04:13:56;;;;;;;82.50;40.40;;;4.60;99.90;;;;;;4813700;29;20285;-60
2021/03/03 04:16:23;;;;;;;88.77;41.77;;;4.70;99.90;;;;;;4810649;29;20679;-60
2021/03/03 04:18:50;;;;;;;94.87;42.63;;;4.80;99.90;;;;;;4821960;29;20224;-60
2021/03/03 04:21:18;;;;;;;98.17;44.43;;;4.90;99.90;;;;;;4818134;29;20228;-61
2021/03/03 04:23:46;;;;;;;87.60;43.50;;;5.00;99.90;;;;;;4819204;29;21385;-61
2021/03/03 04:26:13;;;;;;;104.80;46.43;;;5.10;99.90;;;;;;4823306;29;20291;-60
2021/03/03 04:28:41;;;;;;;97.73;45.87;;;5.20;99.90;;;;;;4816905;29;20233;-61
2021/03/03 04:31:08;;;;;;;100.30;46.80;;;5.30;99.90;;;;;;4812211;29;20232;-60
2021/03/03 04:33:36;;;;;;;99.90;46.77;;;5.40;99.90;;;;;;4820471;29;20213;-61
2021/03/03 04:36:04;;;;;;;96.70;44.97;;;5.40;99.90;;;;;;4822481;29;20211;-60
2021/03/03 04:38:31;;;;;;;93.30;45.93;;;5.40;99.90;;;;;;4822248;29;20642;-61
2021/03/03 04:40:59;;;;;;;101.57;47.43;;;5.50;99.90;;;;;;4823304;29;20221;-61
2021/03/03 04:43:29;;;;;;;102.90;48.83;;;5.60;99.90;;;;;;4820951;29;20200;-60
2021/03/03 04:45:57;;;;;;;111.67;49.63;;;5.70;99.90;;;;;;4818209;29;20253;-60
2021/03/03 04:48:24;;;;;;;113.47;49.43;;;5.80;99.90;;;;;;4821602;29;20205;-60
2021/03/03 04:50:52;;;;;;;113.87;47.17;;;6.10;99.90;;;;;;4821557;29;20228;-60
2021/03/03 04:53:21;;;;;;;107.43;48.63;;;6.20;99.90;;;;;;4823981;29;20270;-61
2021/03/03 04:55:48;;;;;;;101.33;47.10;;;6.30;99.90;;;;;;4820513;29;20587;-60
2021/03/03 04:58:16;;;;;;;106.00;47.43;;;6.30;99.90;;;;;;4835411;29;20258;-60
2021/03/03 05:00:44;;;;;;;99.77;47.27;;;6.30;99.90;;;;;;4821042;29;20265;-61
2021/03/03 05:03:31;;;;;;;102.07;46.37;;;6.30;99.90;;;;;;4823156;29;20193;-60
2021/03/03 05:06:03;;;;;;;91.33;46.77;;;6.50;99.90;;;;;;4820254;29;20238;-61
2021/03/03 05:08:30;;;;;;;93.13;45.60;;;6.50;99.90;;;;;;4826815;29;20197;-61
2021/03/03 05:10:57;;;;;;;100.87;46.67;;;6.50;99.90;;;;;;4822323;29;20283;-60
2021/03/03 05:13:26;;;;;;;103.90;50.37;;;6.50;99.90;;;;;;4821438;29;20225;-60
2021/03/03 05:15:53;;;;;;;99.33;46.03;;;6.60;99.90;;;;;;4817056;29;20513;-61
2021/03/03 05:18:21;;;;;;;101.47;45.30;;;6.70;99.90;;;;;;4820731;29;20213;-60
2021/03/03 05:20:48;;;;;;;99.37;45.07;;;6.80;99.90;;;;;;4822801;29;20361;-60
2021/03/03 05:23:26;;;;;;;92.07;44.20;;;6.90;99.90;;;;;;4813125;29;20197;-60
2021/03/03 05:25:54;;;;;;;88.47;41.97;;;6.90;99.90;;;;;;4818799;29;20197;-60
2021/03/03 05:28:21;;;;;;;94.93;41.17;;;6.90;99.90;;;;;;4818389;29;20205;-60
2021/03/03 05:30:50;;;;;;;91.00;43.50;;;7.00;99.90;;;;;;4822813;29;20208;-61
2021/03/03 05:33:24;;;;;;;81.20;39.17;;;7.00;99.90;;;;;;4821089;29;20736;-60
2021/03/03 05:35:53;;;;;;;84.87;40.07;;;7.00;99.90;;;;;;4820245;29;20200;-61
2021/03/03 05:38:21;;;;;;;79.10;39.57;;;6.90;99.90;;;;;;4821741;29;20550;-60
2021/03/03 05:40:50;;;;;;;77.47;38.93;;;6.70;99.90;;;;;;4820886;29;20224;-61
2021/03/03 05:43:18;;;;;;;88.97;38.73;;;6.60;99.90;;;;;;4818775;29;20197;-60
2021/03/03 05:45:47;;;;;;;85.70;39.37;;;6.50;99.90;;;;;;4819794;29;20197;-60
2021/03/03 05:48:26;;;;;;;85.37;39.20;;;6.50;99.90;;;;;;4820284;29;20669;-63
2021/03/03 05:50:57;;;;;;;81.67;39.87;;;6.40;99.90;;;;;;4820140;29;20281;-60
2021/03/03 05:53:25;;;;;;;90.57;38.77;;;6.30;99.90;;;;;;4817488;29;20643;-60
2021/03/03 05:55:54;;;;;;;81.90;38.07;;;6.20;99.90;;;;;;4823030;29;20212;-61
2021/03/03 05:58:23;;;;;;;85.50;38.23;;;6.10;99.90;;;;;;4824463;29;20616;-61
2021/03/03 06:00:51;;;;;;;79.63;38.40;;;6.10;99.90;;;;;;4819772;29;21625;-61
2021/03/03 06:03:19;;;;;;;88.37;39.30;;;6.10;99.90;;;;;;4819867;29;20201;-60
2021/03/03 06:05:47;;;;;;;83.80;37.60;;;6.10;99.90;;;;;;4814843;29;20205;-60
2021/03/03 06:08:16;;;;;;;85.87;39.37;;;6.20;99.90;;;;;;4832964;29;20228;-60
2021/03/03 06:10:43;;;;;;;84.77;37.90;;;6.20;99.90;;;;;;4819775;29;20209;-60
2021/03/03 06:13:13;;;;;;;75.50;37.33;;;6.30;99.90;;;;;;4819119;29;20213;-60
2021/03/03 06:15:41;;;;;;;75.93;35.90;;;6.30;99.90;;;;;;4818502;29;20201;-60
2021/03/03 06:18:10;;;;;;;80.17;36.33;;;6.30;99.90;;;;;;4819222;29;20201;-60
2021/03/03 06:20:40;;;;;;;68.33;35.40;;;6.20;99.90;;;;;;4816397;29;20212;-60
2021/03/03 06:23:16;;;;;;;84.03;37.47;;;6.20;99.90;;;;;;4818490;29;20673;-61
2021/03/03 06:25:45;;;;;;;83.90;37.47;;;6.20;99.90;;;;;;4814331;29;21945;-60
2021/03/03 06:28:30;;;;;;;79.80;38.23;;;6.20;99.90;;;;;;4816166;29;20200;-60
2021/03/03 06:30:58;;;;;;;82.17;36.77;;;6.20;99.90;;;;;;4818750;29;20284;-61
2021/03/03 06:33:26;;;;;;;76.50;36.67;;;6.20;99.90;;;;;;4820577;29;20259;-60
2021/03/03 06:35:54;;;;;;;77.20;36.90;;;6.30;99.90;;;;;;4815239;29;20201;-60
2021/03/03 06:38:30;;;;;;;73.43;35.93;;;6.30;99.90;;;;;;4816078;29;20233;-60
2021/03/03 06:41:00;;;;;;;79.33;36.60;;;6.40;99.90;;;;;;4821598;29;20196;-61
2021/03/03 06:43:29;;;;;;;65.87;34.53;;;6.30;99.90;;;;;;4815631;29;20204;-60
2021/03/03 06:46:14;;;;;;;71.97;33.80;;;6.30;99.90;;;;;;4830624;29;20733;-60
2021/03/03 06:48:43;;;;;;;71.33;35.03;;;6.20;99.90;;;;;;4814620;29;20204;-60
2021/03/03 06:51:25;;;;;;;75.30;34.93;;;6.20;99.90;;;;;;4816152;29;20260;-60
2021/03/03 06:53:54;;;;;;;80.20;35.13;;;6.20;99.90;;;;;;4818830;29;20216;-60
2021/03/03 06:56:39;;;;;;;71.70;35.03;;;6.30;99.90;;;;;;4810288;29;20209;-60
2021/03/03 06:59:12;;;;;;;76.90;36.07;;;6.30;99.90;;;;;;4819573;29;20212;-60
2021/03/03 07:01:40;;;;;;;84.70;37.23;;;6.40;99.90;;;;;;4812367;29;20212;-60
2021/03/03 07:04:19;;;;;;;79.50;36.40;;;6.40;99.90;;;;;;4821269;29;20225;-60
2021/03/03 07:06:47;;;;;;;73.10;35.43;;;6.50;99.90;;;;;;4821595;29;20291;-60
2021/03/03 07:09:15;;;;;;;67.60;35.07;;;6.50;99.90;;;;;;4820431;29;20196;-60
2021/03/03 07:11:43;;;;;;;74.43;35.07;;;6.50;99.90;;;;;;4821252;29;20207;-60
2021/03/03 07:14:18;;;;;;;73.73;35.63;;;6.60;99.90;;;;;;4820798;29;20517;-60
2021/03/03 07:17:12;;;;;;;80.60;36.80;;;6.60;99.90;;;;;;4819975;29;20688;-60
2021/03/03 07:19:42;;;;;;;78.30;37.37;;;6.60;99.90;;;;;;4821396;29;20645;-60
2021/03/03 07:22:28;;;;;;;76.97;37.17;;;6.70;99.90;;;;;;4813967;29;20770;-61
2021/03/03 07:25:01;;;;;;;79.60;37.07;;;6.80;99.90;;;;;;4821324;29;20197;-61
2021/03/03 07:27:29;;;;;;;74.57;37.33;;;6.80;99.90;;;;;;4820307;29;20256;-60
2021/03/03 07:29:58;;;;;;;77.53;37.90;;;6.90;99.90;;;;;;4817145;29;20253;-61
2021/03/03 07:32:25;;;;;;;84.27;38.43;;;7.00;99.90;;;;;;4819553;29;20216;-61
2021/03/03 07:34:55;;;;;;;80.93;36.80;;;7.10;99.90;;;;;;4817152;29;20637;-61
2021/03/03 07:37:25;;;;;;;69.57;35.43;;;7.10;99.90;;;;;;4818872;29;20207;-61
2021/03/03 07:39:57;;;;;;;77.87;37.97;;;7.20;99.90;;;;;;4818058;29;20554;-61
2021/03/03 07:42:27;;;;;;;75.57;37.70;;;7.30;99.90;;;;;;4819249;29;20296;-60
2021/03/03 07:44:56;;;;;;;75.63;37.70;;;7.40;99.90;;;;;;4812461;29;20630;-61
2021/03/03 07:47:25;;;;;;;70.37;36.50;;;7.50;99.90;;;;;;4816734;29;20235;-61
2021/03/03 07:49:58;;;;;;;70.17;36.77;;;7.70;99.90;;;;;;4816961;29;20197;-61
2021/03/03 07:52:25;;;;;;;72.33;37.33;;;7.90;99.90;;;;;;4818282;29;20368;-61
2021/03/03 07:54:53;;;;;;;73.17;37.03;;;8.00;99.90;;;;;;4818693;29;20752;-61
2021/03/03 07:57:24;;;;;;;67.00;36.20;;;8.20;99.90;;;;;;4818624;29;20299;-61
2021/03/03 07:59:53;;;;;;;71.80;35.33;;;8.40;99.90;;;;;;4819145;29;20691;-61
2021/03/03 08:02:20;;;;;;;69.17;37.83;;;8.60;99.90;;;;;;4813430;29;20220;-61
2021/03/03 08:04:48;;;;;;;72.47;35.83;;;8.80;99.90;;;;;;4820284;29;20193;-62
2021/03/03 08:07:18;;;;;;;74.53;36.23;;;9.00;99.90;;;;;;4818481;29;20665;-61
2021/03/03 08:10:29;;;;;;;69.63;35.37;;;9.20;99.90;;;;;;4816929;29;20197;-61
2021/03/03 08:13:02;;;;;;;70.50;35.70;;;9.40;99.90;;;;;;4817258;29;20623;-61
2021/03/03 08:15:39;;;;;;;66.07;35.13;;;9.50;99.90;;;;;;4821421;29;20595;-61
2021/03/03 08:18:24;;;;;;;65.37;33.83;;;9.70;99.90;;;;;;4823427;29;20667;-61
2021/03/03 08:20:53;;;;;;;66.67;33.70;;;9.90;99.90;;;;;;4824112;29;20201;-61
2021/03/03 08:23:44;;;;;;;70.70;34.07;;;10.20;99.90;;;;;;4822017;29;20201;-61
2021/03/03 08:26:31;;;;;;;63.17;33.53;;;10.50;99.90;;;;;;4817402;29;20295;-61
2021/03/03 08:29:20;;;;;;;60.07;32.53;;;10.90;99.90;;;;;;4824005;29;20209;-61
2021/03/03 08:31:47;;;;;;;62.33;31.90;;;11.20;99.90;;;;;;4832295;29;20758;-61
2021/03/03 08:34:16;;;;;;;61.13;32.57;;;11.40;99.90;;;;;;4820053;29;20229;-61
2021/03/03 08:36:58;;;;;;;55.90;32.17;;;11.70;99.90;;;;;;4822379;29;20238;-61
2021/03/03 08:39:34;;;;;;;63.87;32.33;;;11.90;99.90;;;;;;4819281;29;20290;-61
2021/03/03 08:42:03;;;;;;;68.07;33.47;;;12.00;99.90;;;;;;4811819;29;20689;-61
2021/03/03 08:44:32;;;;;;;65.07;30.93;;;12.20;99.90;;;;;;4823770;29;20774;-61
2021/03/03 08:46:59;;;;;;;72.70;31.53;;;12.40;99.90;;;;;;4821466;29;20205;-61
2021/03/03 08:49:28;;;;;;;67.23;31.90;;;12.60;99.90;;;;;;4821972;29;20201;-61
2021/03/03 08:52:13;;;;;;;54.53;28.53;;;12.80;99.90;;;;;;4820723;29;20241;-61
2021/03/03 08:54:46;;;;;;;54.90;29.13;;;13.00;99.90;;;;;;4818878;29;20818;-61
2021/03/03 08:57:36;;;;;;;55.57;29.70;;;13.10;99.90;;;;;;4815903;29;20225;-61
2021/03/03 09:00:07;;;;;;;55.60;29.97;;;13.30;99.90;;;;;;4819765;29;20201;-61
2021/03/03 09:02:40;;;;;;;54.97;28.53;;;13.60;99.90;;;;;;4818967;29;20235;-61
2021/03/03 09:05:11;;;;;;;53.30;30.37;;;13.80;99.90;;;;;;4820531;29;20221;-61
2021/03/03 09:07:38;;;;;;;56.27;28.87;;;13.80;99.90;;;;;;4819214;29;20193;-61
2021/03/03 09:10:10;;;;;;;54.07;29.07;;;13.90;99.90;;;;;;4818926;29;20236;-61
2021/03/03 09:12:42;;;;;;;62.73;29.23;;;14.00;99.90;;;;;;4823533;29;20689;-62
2021/03/03 09:15:12;;;;;;;51.83;28.70;;;14.20;99.90;;;;;;4820914;29;20277;-61
2021/03/03 09:17:40;;;;;;;53.80;28.93;;;14.40;99.90;;;;;;4813606;29;20911;-61
2021/03/03 09:20:11;;;;;;;51.57;28.20;;;14.50;99.90;;;;;;4817950;29;20213;-61
2021/03/03 09:22:41;;;;;;;56.07;27.60;;;14.60;99.90;;;;;;4822361;29;20292;-62
2021/03/03 09:25:12;;;;;;;49.47;28.67;;;14.60;99.90;;;;;;4818456;29;20960;-61
2021/03/03 09:27:40;;;;;;;55.53;29.30;;;14.50;99.90;;;;;;4817740;29;20205;-61
2021/03/03 09:30:11;;;;;;;54.43;28.97;;;14.50;99.90;;;;;;4821313;29;20627;-61
2021/03/03 09:32:38;;;;;;;60.33;29.20;;;14.50;99.90;;;;;;4815988;29;20213;-61
2021/03/03 09:35:08;;;;;;;59.20;30.50;;;14.60;99.90;;;;;;4818756;29;20223;-61
2021/03/03 09:37:38;;;;;;;63.33;29.37;;;14.60;99.90;;;;;;4817357;29;20300;-62
2021/03/03 09:40:08;;;;;;;50.77;28.57;;;14.50;99.90;;;;;;4819941;29;20235;-61
2021/03/03 09:42:40;;;;;;;49.40;28.83;;;14.70;99.90;;;;;;4823073;29;20244;-61
2021/03/03 09:45:11;;;;;;;52.33;28.80;;;15.00;99.90;;;;;;4811066;29;20206;-62
2021/03/03 09:47:39;;;;;;;53.20;28.53;;;15.20;99.90;;;;;;4815854;29;20261;-61
2021/03/03 09:50:09;;;;;;;51.80;28.30;;;15.30;99.90;;;;;;4819304;29;20696;-61
2021/03/03 09:52:41;;;;;;;53.60;28.73;;;15.40;99.90;;;;;;4820752;29;20903;-61
2021/03/03 09:55:12;;;;;;;57.00;28.10;;;15.60;99.90;;;;;;4817066;29;20316;-61
2021/03/03 09:57:39;;;;;;;48.27;27.77;;;15.30;99.90;;;;;;4827240;29;20216;-61
2021/03/03 10:00:10;;;;;;;53.77;28.33;;;15.30;99.90;;;;;;4804642;29;20201;-62
2021/03/03 10:02:40;;;;;;;51.27;28.73;;;15.70;99.90;;;;;;4820980;29;20267;-62
2021/03/03 10:05:15;;;;;;;57.43;29.00;;;16.00;99.90;;;;;;4820019;29;20629;-62
2021/03/03 10:07:49;;;;;;;56.47;29.27;;;16.30;99.90;;;;;;4815871;29;20289;-62
2021/03/03 10:10:17;;;;;;;52.10;28.83;;;16.30;99.90;;;;;;4819461;29;20797;-61
2021/03/03 10:12:45;;;;;;;53.40;27.67;;;16.70;99.90;;;;;;4820292;29;20235;-62
2021/03/03 10:15:15;;;;;;;53.47;28.17;;;16.60;99.90;;;;;;4818469;29;20721;-62
2021/03/03 10:17:46;;;;;;;54.20;27.57;;;16.80;99.90;;;;;;4820697;29;20236;-61
2021/03/03 10:20:34;;;;;;;48.37;27.67;;;17.00;99.90;;;;;;4820983;29;20201;-62
2021/03/03 10:23:09;;;;;;;49.53;27.10;;;17.40;99.90;;;;;;4813690;29;20228;-61
2021/03/03 10:25:39;;;;;;;55.30;27.70;;;17.60;99.90;;;;;;4821425;29;20281;-62
2021/03/03 10:28:11;;;;;;;50.23;27.83;;;17.90;99.90;;;;;;4817208;29;20210;-62
2021/03/03 10:30:42;;;;;;;59.00;29.00;;;18.00;99.90;;;;;;4814000;29;20295;-61
2021/03/03 10:33:10;;;;;;;51.33;28.27;;;17.50;99.90;;;;;;4821234;29;20216;-61
2021/03/03 10:35:49;;;;;;;51.30;28.03;;;17.60;99.90;;;;;;4822053;29;20216;-62
2021/03/03 10:38:19;;;;;;;47.17;28.43;;;17.70;99.90;;;;;;4819339;29;20200;-62
2021/03/03 10:40:49;;;;;;;51.23;27.83;;;17.90;99.90;;;;;;4811476;29;20201;-62
2021/03/03 10:43:18;;;;;;;51.97;28.10;;;18.10;99.90;;;;;;4817457;29;20221;-61
2021/03/03 10:45:48;;;;;;;51.03;28.27;;;18.20;99.90;;;;;;4813162;29;20204;-62
2021/03/03 10:48:26;;;;;;;48.40;27.67;;;18.40;99.90;;;;;;4818028;29;20742;-62
2021/03/03 10:50:56;;;;;;;47.97;28.20;;;18.60;99.90;;;;;;4812638;29;20257;-61
2021/03/03 10:53:23;;;;;;;51.53;27.90;;;18.60;99.90;;;;;;4803777;29;20206;-62
2021/03/03 10:55:50;;;;;;;51.07;28.67;;;18.90;99.90;;;;;;4816519;29;20274;-61
2021/03/03 10:58:18;;;;;;;53.30;28.13;;;18.80;99.90;;;;;;4813008;29;20668;-61
2021/03/03 11:01:01;;;;;;;45.53;28.17;;;18.80;99.90;;;;;;4818340;29;20214;-61
2021/03/03 11:03:30;;;;;;;49.20;26.23;;;18.60;99.90;;;;;;4817772;29;20292;-61
2021/03/03 11:05:59;;;;;;;46.93;28.43;;;19.00;99.90;;;;;;4814710;29;20306;-62
2021/03/03 11:08:33;;;;;;;47.77;26.93;;;19.10;99.90;;;;;;4815135;29;20223;-61
2021/03/03 11:11:06;;;;;;;47.27;27.03;;;19.60;99.90;;;;;;4810154;29;20544;-61
2021/03/03 11:13:34;;;;;;;47.70;27.47;;;19.50;99.90;;;;;;4821035;29;20271;-61
2021/03/03 11:16:03;;;;;;;51.93;27.20;;;19.70;99.90;;;;;;4812024;29;20700;-61
2021/03/03 11:18:31;;;;;;;47.27;27.73;;;19.60;99.90;;;;;;4817184;29;20659;-62
2021/03/03 11:21:00;;;;;;;50.93;26.80;;;19.80;99.90;;;;;;4821369;29;20199;-62
2021/03/03 11:23:28;;;;;;;43.07;25.93;;;20.00;99.90;;;;;;4821335;29;20242;-62
2021/03/03 11:25:57;;;;;;;44.50;25.67;;;20.10;99.90;;;;;;4821719;29;20240;-61
2021/03/03 11:28:24;;;;;;;45.47;25.70;;;20.00;99.90;;;;;;4811054;29;20293;-62
2021/03/03 11:30:53;;;;;;;49.53;25.87;;;20.20;99.90;;;;;;4816598;29;20583;-62
2021/03/03 11:33:21;;;;;;;43.80;26.10;;;20.10;99.90;;;;;;4817070;29;20230;-61
2021/03/03 11:35:49;;;;;;;50.23;25.07;;;19.80;99.90;;;;;;4808902;29;20227;-61
2021/03/03 11:38:27;;;;;;;47.73;23.80;;;19.60;99.90;;;;;;4812797;29;20201;-61
2021/03/03 11:40:55;;;;;;;46.10;24.53;;;19.70;99.90;;;;;;4817211;29;20240;-61
2021/03/03 11:43:22;;;;;;;42.57;24.53;;;19.90;99.90;;;;;;4821512;29;20204;-62
2021/03/03 11:45:52;;;;;;;41.67;23.93;;;20.00;99.90;;;;;;4826698;29;20289;-62
2021/03/03 11:48:20;;;;;;;46.10;24.93;;;20.10;99.90;;;;;;4824326;29;20282;-62
2021/03/03 11:50:48;;;;;;;47.07;24.23;;;20.40;99.90;;;;;;4823811;29;20230;-62
2021/03/03 11:53:17;;;;;;;40.63;24.70;;;20.30;99.90;;;;;;4811391;29;20378;-63
2021/03/03 11:55:45;;;;;;;44.13;24.63;;;20.20;99.90;;;;;;4823339;29;20238;-62
2021/03/03 11:58:13;;;;;;;43.13;24.50;;;20.20;99.90;;;;;;4819938;29;20219;-63
2021/03/03 12:00:40;;;;;;;45.00;24.57;;;20.30;99.90;;;;;;4823379;29;20569;-62
2021/03/03 12:03:08;;;;;;;36.70;21.87;;;20.50;99.90;;;;;;4818165;29;20666;-63
2021/03/03 12:05:37;;;;;;;34.70;22.10;;;20.20;99.90;;;;;;4818514;29;20902;-62
2021/03/03 12:08:06;;;;;;;38.73;22.97;;;20.10;99.90;;;;;;4820487;29;20204;-62
2021/03/03 12:10:34;;;;;;;42.60;23.23;;;20.10;99.90;;;;;;4820378;29;20664;-63
2021/03/03 12:13:02;;;;;;;40.43;24.97;;;19.90;99.90;;;;;;4822852;29;20209;-62
2021/03/03 12:15:30;;;;;;;46.13;25.33;;;19.80;99.90;;;;;;4822932;29;20270;-62
2021/03/03 12:17:58;;;;;;;46.47;24.47;;;19.60;99.90;;;;;;4826553;29;20197;-62
2021/03/03 12:20:32;;;;;;;41.60;23.00;;;19.50;99.90;;;;;;4826382;29;20197;-62
2021/03/03 12:23:00;;;;;;;44.47;25.37;;;19.40;99.90;;;;;;4820592;29;20202;-62
2021/03/03 12:25:29;;;;;;;51.07;25.83;;;19.60;99.90;;;;;;4824754;29;20193;-62
2021/03/03 12:27:57;;;;;;;45.90;24.03;;;19.40;99.90;;;;;;4827079;29;20193;-62
2021/03/03 12:30:25;;;;;;;40.57;25.10;;;19.30;99.90;;;;;;4820803;29;20289;-63
2021/03/03 12:32:54;;;;;;;43.00;25.90;;;19.50;99.90;;;;;;4821787;29;20577;-62
2021/03/03 12:35:25;;;;;;;45.57;24.60;;;19.80;99.90;;;;;;4822504;29;20232;-62
2021/03/03 12:37:52;;;;;;;43.57;23.83;;;19.90;99.90;;;;;;4825190;29;20236;-62
2021/03/03 12:40:21;;;;;;;44.10;24.73;;;19.90;99.90;;;;;;4822166;29;20751;-62
2021/03/03 12:42:48;;;;;;;39.47;22.17;;;19.80;99.90;;;;;;4816453;29;20201;-62
2021/03/03 12:45:16;;;;;;;42.23;21.57;;;19.50;99.90;;;;;;4823144;29;20197;-62
2021/03/03 12:47:45;;;;;;;44.63;22.97;;;19.60;99.90;;;;;;4825789;29;20228;-62